sensor_id;sensor_type;location;lat;lon;timestamp;temperature;humidity
5806;DHT22;2929;50.810;8.342;2023-11-21T00:00:00;6.10;99.90
5806;DHT22;2929;50.810;8.342;2023-11-21T00:02:29;6.10;99.90
5806;DHT22;2929;50.810;8.342;2023-11-21T00:04:56;6.00;99.90
5806;DHT22;2929;50.810;8.342;2023-11-21T00:07:25;6.10;99.90
5806;DHT22;2929;50.810;8.342;2023-11-21T00:09:52;6.00;99.90
5806;DHT22;2929;50.810;8.342;2023-11-21T00:12:21;6.00;99.90
5806;DHT22;2929;50.810;8.342;2023-11-21T00:14:48;6.00;99.90
5806;DHT22;2929;50.810;8.342;2023-11-21T00:17:15;6.00;99.90
5806;DHT22;2929;50.810;8.342;2023-11-21T00:19:42;6.10;99.90
5806;DHT22;2929;50.810;8.342;2023-11-21T00:22:09;6.00;99.90
5806;DHT22;2929;50.810;8.342;2023-11-21T00:24:37;6.10;99.90
5806;DHT22;2929;50.810;8.342;2023-11-21T00:27:04;6.10;99.90
5806;DHT22;2929;50.810;8.342;2023-11-21T00:29:31;6.00;99.90
5806;DHT22;2929;50.810;8.342;2023-11-21T00:31:58;6.00;99.90
5806;DHT22;2929;50.810;8.342;2023-11-21T00:34:25;6.00;99.90
5806;DHT22;2929;50.810;8.342;2023-11-21T00:36:52;6.00;99.90
5806;DHT22;2929;50.810;8.342;2023-11-21T00:39:20;6.00;99.90
5806;DHT22;2929;50.810;8.342;2023-11-21T00:41:48;6.00;99.90
5806;DHT22;2929;50.810;8.342;2023-11-21T00:44:15;6.00;99.90
5806;DHT22;2929;50.810;8.342;2023-11-21T00:46:42;6.00;99.90
5806;DHT22;2929;50.810;8.342;2023-11-21T00:49:10;5.90;99.90
5806;DHT22;2929;50.810;8.342;2023-11-21T00:51:37;5.90;99.90
5806;DHT22;2929;50.810;8.342;2023-11-21T00:54:05;5.90;99.90
5806;DHT22;2929;50.810;8.342;2023-11-21T00:56:32;5.90;99.90
5806;DHT22;2929;50.810;8.342;2023-11-21T00:59:01;5.80;99.90
5806;DHT22;2929;50.810;8.342;2023-11-21T01:01:30;5.80;99.90
5806;DHT22;2929;50.810;8.342;2023-11-21T01:03:57;5.70;99.90
5806;DHT22;2929;50.810;8.342;2023-11-21T01:06:24;5.70;99.90
5806;DHT22;2929;50.810;8.342;2023-11-21T01:08:51;5.70;99.90
5806;DHT22;2929;50.810;8.342;2023-11-21T01:11:18;5.60;99.90
5806;DHT22;2929;50.810;8.342;2023-11-21T01:13:45;5.50;99.90
5806;DHT22;2929;50.810;8.342;2023-11-21T01:16:14;5.60;99.90
5806;DHT22;2929;50.810;8.342;2023-11-21T01:18:41;5.60;99.90
5806;DHT22;2929;50.810;8.342;2023-11-21T01:21:08;5.50;99.90
5806;DHT22;2929;50.810;8.342;2023-11-21T01:23:35;5.50;99.90
5806;DHT22;2929;50.810;8.342;2023-11-21T01:26:02;5.60;99.90
5806;DHT22;2929;50.810;8.342;2023-11-21T01:28:29;5.60;99.90
5806;DHT22;2929;50.810;8.342;2023-11-21T01:30:57;5.60;99.90
5806;DHT22;2929;50.810;8.342;2023-11-21T01:33:25;5.60;99.90
5806;DHT22;2929;50.810;8.342;2023-11-21T01:35:53;5.60;99.90
5806;DHT22;2929;50.810;8.342;2023-11-21T01:38:21;5.70;99.90
5806;DHT22;2929;50.810;8.342;2023-11-21T01:40:48;5.60;99.90
5806;DHT22;2929;50.810;8.342;2023-11-21T01:43:15;5.60;99.90
5806;DHT22;2929;50.810;8.342;2023-11-21T01:45:43;5.60;99.90
5806;DHT22;2929;50.810;8.342;2023-11-21T01:48:11;5.60;99.90
5806;DHT22;2929;50.810;8.342;2023-11-21T01:50:41;5.50;99.90
5806;DHT22;2929;50.810;8.342;2023-11-21T01:53:11;5.60;99.90
5806;DHT22;2929;50.810;8.342;2023-11-21T01:55:40;5.50;99.90
5806;DHT22;2929;50.810;8.342;2023-11-21T01:58:09;5.50;99.90
5806;DHT22;2929;50.810;8.342;2023-11-21T02:00:38;5.60;99.90
5806;DHT22;2929;50.810;8.342;2023-11-21T02:03:05;5.50;99.90
5806;DHT22;2929;50.810;8.342;2023-11-21T02:05:32;5.50;99.90
5806;DHT22;2929;50.810;8.342;2023-11-21T02:08:01;5.40;99.90
5806;DHT22;2929;50.810;8.342;2023-11-21T02:10:29;5.40;99.90
5806;DHT22;2929;50.810;8.342;2023-11-21T02:12:58;5.40;99.90
5806;DHT22;2929;50.810;8.342;2023-11-21T02:15:27;5.40;99.90
5806;DHT22;2929;50.810;8.342;2023-11-21T02:17:54;5.40;99.90
5806;DHT22;2929;50.810;8.342;2023-11-21T02:20:24;5.40;99.90
5806;DHT22;2929;50.810;8.342;2023-11-21T02:22:54;5.40;99.90
5806;DHT22;2929;50.810;8.342;2023-11-21T02:25:23;5.40;99.90
5806;DHT22;2929;50.810;8.342;2023-11-21T02:27:50;5.50;99.90
5806;DHT22;2929;50.810;8.342;2023-11-21T02:30:17;5.40;99.90
5806;DHT22;2929;50.810;8.342;2023-11-21T02:32:45;5.40;99.90
5806;DHT22;2929;50.810;8.342;2023-11-21T02:35:12;5.40;99.90
5806;DHT22;2929;50.810;8.342;2023-11-21T02:37:39;5.20;99.90
5806;DHT22;2929;50.810;8.342;2023-11-21T02:40:10;5.20;99.90
5806;DHT22;2929;50.810;8.342;2023-11-21T02:42:38;5.20;99.90
5806;DHT22;2929;50.810;8.342;2023-11-21T02:45:07;5.30;99.90
5806;DHT22;2929;50.810;8.342;2023-11-21T02:47:34;5.30;99.90
5806;DHT22;2929;50.810;8.342;2023-11-21T02:50:01;5.30;99.90
5806;DHT22;2929;50.810;8.342;2023-11-21T02:52:29;5.30;99.90
5806;DHT22;2929;50.810;8.342;2023-11-21T02:54:58;5.30;99.90
5806;DHT22;2929;50.810;8.342;2023-11-21T02:57:27;5.40;99.90
5806;DHT22;2929;50.810;8.342;2023-11-21T02:59:54;5.40;99.90
5806;DHT22;2929;50.810;8.342;2023-11-21T03:02:21;5.30;99.90
5806;DHT22;2929;50.810;8.342;2023-11-21T03:04:48;5.30;99.90
5806;DHT22;2929;50.810;8.342;2023-11-21T03:07:16;5.30;99.90
5806;DHT22;2929;50.810;8.342;2023-11-21T03:09:46;5.30;99.90
5806;DHT22;2929;50.810;8.342;2023-11-21T03:12:13;5.30;99.90
5806;DHT22;2929;50.810;8.342;2023-11-21T03:14:42;5.30;99.90
5806;DHT22;2929;50.810;8.342;2023-11-21T03:17:09;5.20;99.90
5806;DHT22;2929;50.810;8.342;2023-11-21T03:19:37;5.20;99.90
5806;DHT22;2929;50.810;8.342;2023-11-21T03:22:04;5.20;99.90
5806;DHT22;2929;50.810;8.342;2023-11-21T03:24:31;5.20;99.90
5806;DHT22;2929;50.810;8.342;2023-11-21T03:26:59;5.20;99.90
5806;DHT22;2929;50.810;8.342;2023-11-21T03:29:26;5.20;99.90
5806;DHT22;2929;50.810;8.342;2023-11-21T03:31:54;5.30;99.90
5806;DHT22;2929;50.810;8.342;2023-11-21T03:34:23;5.30;99.90
5806;DHT22;2929;50.810;8.342;2023-11-21T03:36:51;5.30;99.90
5806;DHT22;2929;50.810;8.342;2023-11-21T03:39:19;5.30;99.90
5806;DHT22;2929;50.810;8.342;2023-11-21T03:41:48;5.30;99.90
5806;DHT22;2929;50.810;8.342;2023-11-21T03:44:15;5.30;99.90
5806;DHT22;2929;50.810;8.342;2023-11-21T03:46:44;5.30;99.90
5806;DHT22;2929;50.810;8.342;2023-11-21T03:49:13;5.30;99.90
5806;DHT22;2929;50.810;8.342;2023-11-21T03:51:41;5.30;99.90
5806;DHT22;2929;50.810;8.342;2023-11-21T03:54:08;5.30;99.90
5806;DHT22;2929;50.810;8.342;2023-11-21T03:56:38;5.40;99.90
5806;DHT22;2929;50.810;8.342;2023-11-21T03:59:05;5.40;99.90
5806;DHT22;2929;50.810;8.342;2023-11-21T04:01:32;5.40;99.90
5806;DHT22;2929;50.810;8.342;2023-11-21T04:04:00;5.40;99.90
5806;DHT22;2929;50.810;8.342;2023-11-21T04:06:28;5.40;99.90
5806;DHT22;2929;50.810;8.342;2023-11-21T04:08:55;5.40;99.90
5806;DHT22;2929;50.810;8.342;2023-11-21T04:11:22;5.40;99.90
5806;DHT22;2929;50.810;8.342;2023-11-21T04:13:49;5.40;99.90
5806;DHT22;2929;50.810;8.342;2023-11-21T04:16:16;5.40;99.90
5806;DHT22;2929;50.810;8.342;2023-11-21T04:18:44;5.40;99.90
5806;DHT22;2929;50.810;8.342;2023-11-21T04:21:10;5.40;99.90
5806;DHT22;2929;50.810;8.342;2023-11-21T04:23:39;5.40;99.90
5806;DHT22;2929;50.810;8.342;2023-11-21T04:26:06;5.40;99.90
5806;DHT22;2929;50.810;8.342;2023-11-21T04:28:33;5.40;99.90
5806;DHT22;2929;50.810;8.342;2023-11-21T04:31:01;5.40;99.90
5806;DHT22;2929;50.810;8.342;2023-11-21T04:33:28;5.40;99.90
5806;DHT22;2929;50.810;8.342;2023-11-21T04:35:56;5.40;99.90
5806;DHT22;2929;50.810;8.342;2023-11-21T04:38:23;5.40;99.90
5806;DHT22;2929;50.810;8.342;2023-11-21T04:40:51;5.40;99.90
5806;DHT22;2929;50.810;8.342;2023-11-21T04:43:18;5.40;99.90
5806;DHT22;2929;50.810;8.342;2023-11-21T04:45:45;5.40;99.90
5806;DHT22;2929;50.810;8.342;2023-11-21T04:48:12;5.40;99.90
5806;DHT22;2929;50.810;8.342;2023-11-21T04:50:39;5.40;99.90
5806;DHT22;2929;50.810;8.342;2023-11-21T04:53:06;5.40;99.90
5806;DHT22;2929;50.810;8.342;2023-11-21T04:55:33;5.30;99.90
5806;DHT22;2929;50.810;8.342;2023-11-21T04:58:01;5.30;99.90
5806;DHT22;2929;50.810;8.342;2023-11-21T05:00:30;5.30;99.90
5806;DHT22;2929;50.810;8.342;2023-11-21T05:02:57;5.40;99.90
5806;DHT22;2929;50.810;8.342;2023-11-21T05:05:23;5.40;99.90
5806;DHT22;2929;50.810;8.342;2023-11-21T05:07:50;5.40;99.90
5806;DHT22;2929;50.810;8.342;2023-11-21T05:10:19;5.40;99.90
5806;DHT22;2929;50.810;8.342;2023-11-21T05:12:46;5.40;99.90
5806;DHT22;2929;50.810;8.342;2023-11-21T05:15:15;5.40;99.90
5806;DHT22;2929;50.810;8.342;2023-11-21T05:17:43;5.40;99.90
5806;DHT22;2929;50.810;8.342;2023-11-21T05:20:13;5.40;99.90
5806;DHT22;2929;50.810;8.342;2023-11-21T05:22:43;5.40;99.90
5806;DHT22;2929;50.810;8.342;2023-11-21T05:25:10;5.50;99.90
5806;DHT22;2929;50.810;8.342;2023-11-21T05:27:37;5.50;99.90
5806;DHT22;2929;50.810;8.342;2023-11-21T05:30:05;5.50;99.90
5806;DHT22;2929;50.810;8.342;2023-11-21T05:32:36;5.50;99.90
5806;DHT22;2929;50.810;8.342;2023-11-21T05:35:04;5.60;99.90
5806;DHT22;2929;50.810;8.342;2023-11-21T05:37:35;5.60;99.90
5806;DHT22;2929;50.810;8.342;2023-11-21T05:40:05;5.60;99.90
5806;DHT22;2929;50.810;8.342;2023-11-21T05:42:32;5.60;99.90
5806;DHT22;2929;50.810;8.342;2023-11-21T05:44:59;5.50;99.90
5806;DHT22;2929;50.810;8.342;2023-11-21T05:47:38;5.50;99.90
5806;DHT22;2929;50.810;8.342;2023-11-21T05:50:07;5.50;99.90
5806;DHT22;2929;50.810;8.342;2023-11-21T05:52:36;5.50;99.90
5806;DHT22;2929;50.810;8.342;2023-11-21T05:55:04;5.50;99.90
5806;DHT22;2929;50.810;8.342;2023-11-21T05:57:33;5.50;99.90
5806;DHT22;2929;50.810;8.342;2023-11-21T06:00:16;5.40;99.90
5806;DHT22;2929;50.810;8.342;2023-11-21T06:02:47;5.40;99.90
5806;DHT22;2929;50.810;8.342;2023-11-21T06:05:17;5.50;99.90
5806;DHT22;2929;50.810;8.342;2023-11-21T06:07:45;5.40;99.90
5806;DHT22;2929;50.810;8.342;2023-11-21T06:10:12;5.40;99.90
5806;DHT22;2929;50.810;8.342;2023-11-21T06:12:40;5.40;99.90
5806;DHT22;2929;50.810;8.342;2023-11-21T06:15:09;5.40;99.90
5806;DHT22;2929;50.810;8.342;2023-11-21T06:17:39;5.40;99.90
5806;DHT22;2929;50.810;8.342;2023-11-21T06:20:09;5.40;99.90
5806;DHT22;2929;50.810;8.342;2023-11-21T06:22:40;5.40;99.90
5806;DHT22;2929;50.810;8.342;2023-11-21T06:25:08;5.40;99.90
5806;DHT22;2929;50.810;8.342;2023-11-21T06:27:38;5.40;99.90
5806;DHT22;2929;50.810;8.342;2023-11-21T06:30:06;5.40;99.90
5806;DHT22;2929;50.810;8.342;2023-11-21T06:32:35;5.40;99.90
5806;DHT22;2929;50.810;8.342;2023-11-21T06:35:02;5.40;99.90
5806;DHT22;2929;50.810;8.342;2023-11-21T06:37:31;5.40;99.90
5806;DHT22;2929;50.810;8.342;2023-11-21T06:39:59;5.40;99.90
5806;DHT22;2929;50.810;8.342;2023-11-21T06:42:29;5.40;99.90
5806;DHT22;2929;50.810;8.342;2023-11-21T06:44:56;5.40;99.90
5806;DHT22;2929;50.810;8.342;2023-11-21T06:47:24;5.40;99.90
5806;DHT22;2929;50.810;8.342;2023-11-21T06:49:52;5.50;99.90
5806;DHT22;2929;50.810;8.342;2023-11-21T06:52:19;5.40;99.90
5806;DHT22;2929;50.810;8.342;2023-11-21T06:54:48;5.50;99.90
5806;DHT22;2929;50.810;8.342;2023-11-21T06:57:16;5.50;99.90
5806;DHT22;2929;50.810;8.342;2023-11-21T06:59:43;5.50;99.90
5806;DHT22;2929;50.810;8.342;2023-11-21T07:02:10;5.50;99.90
5806;DHT22;2929;50.810;8.342;2023-11-21T07:04:37;5.50;99.90
5806;DHT22;2929;50.810;8.342;2023-11-21T07:07:06;5.50;99.90
5806;DHT22;2929;50.810;8.342;2023-11-21T07:09:33;5.50;99.90
5806;DHT22;2929;50.810;8.342;2023-11-21T07:12:02;5.50;99.90
5806;DHT22;2929;50.810;8.342;2023-11-21T07:14:31;5.50;99.90
5806;DHT22;2929;50.810;8.342;2023-11-21T07:16:58;5.60;99.90
5806;DHT22;2929;50.810;8.342;2023-11-21T07:19:25;5.60;99.90
5806;DHT22;2929;50.810;8.342;2023-11-21T07:21:52;5.60;99.90
5806;DHT22;2929;50.810;8.342;2023-11-21T07:24:19;5.60;99.90
5806;DHT22;2929;50.810;8.342;2023-11-21T07:26:46;5.60;99.90
5806;DHT22;2929;50.810;8.342;2023-11-21T07:29:15;5.60;99.90
5806;DHT22;2929;50.810;8.342;2023-11-21T07:31:42;5.60;99.90
5806;DHT22;2929;50.810;8.342;2023-11-21T07:34:09;5.70;99.90
5806;DHT22;2929;50.810;8.342;2023-11-21T07:39:12;5.60;99.90
5806;DHT22;2929;50.810;8.342;2023-11-21T07:41:42;5.70;99.90
5806;DHT22;2929;50.810;8.342;2023-11-21T07:44:16;5.70;99.90
5806;DHT22;2929;50.810;8.342;2023-11-21T07:46:43;5.70;99.90
5806;DHT22;2929;50.810;8.342;2023-11-21T07:49:11;5.70;99.90
5806;DHT22;2929;50.810;8.342;2023-11-21T07:51:40;5.80;99.90
5806;DHT22;2929;50.810;8.342;2023-11-21T07:54:07;5.80;99.90
5806;DHT22;2929;50.810;8.342;2023-11-21T07:56:35;5.80;99.90
5806;DHT22;2929;50.810;8.342;2023-11-21T07:59:02;5.80;99.90
5806;DHT22;2929;50.810;8.342;2023-11-21T08:01:31;5.90;99.90
5806;DHT22;2929;50.810;8.342;2023-11-21T08:03:59;5.90;99.90
5806;DHT22;2929;50.810;8.342;2023-11-21T08:06:29;5.90;99.90
5806;DHT22;2929;50.810;8.342;2023-11-21T08:08:57;6.00;99.90
5806;DHT22;2929;50.810;8.342;2023-11-21T08:11:24;6.00;99.90
5806;DHT22;2929;50.810;8.342;2023-11-21T08:13:52;6.00;99.90
5806;DHT22;2929;50.810;8.342;2023-11-21T08:16:22;6.10;99.90
5806;DHT22;2929;50.810;8.342;2023-11-21T08:18:51;6.10;99.90
5806;DHT22;2929;50.810;8.342;2023-11-21T08:21:22;6.20;99.90
5806;DHT22;2929;50.810;8.342;2023-11-21T08:24:04;6.20;99.90
5806;DHT22;2929;50.810;8.342;2023-11-21T08:26:37;6.30;99.90
5806;DHT22;2929;50.810;8.342;2023-11-21T08:29:04;6.40;99.90
5806;DHT22;2929;50.810;8.342;2023-11-21T08:31:32;6.40;99.90
5806;DHT22;2929;50.810;8.342;2023-11-21T08:34:01;6.40;99.90
5806;DHT22;2929;50.810;8.342;2023-11-21T08:36:29;6.50;99.90
5806;DHT22;2929;50.810;8.342;2023-11-21T08:38:57;6.50;99.90
5806;DHT22;2929;50.810;8.342;2023-11-21T08:41:24;6.40;99.90
5806;DHT22;2929;50.810;8.342;2023-11-21T08:43:55;6.40;99.90
5806;DHT22;2929;50.810;8.342;2023-11-21T08:46:25;6.40;99.90
5806;DHT22;2929;50.810;8.342;2023-11-21T08:48:52;6.40;99.90
5806;DHT22;2929;50.810;8.342;2023-11-21T08:51:22;6.50;99.90
5806;DHT22;2929;50.810;8.342;2023-11-21T08:53:49;6.60;99.90
5806;DHT22;2929;50.810;8.342;2023-11-21T08:56:17;6.60;99.90
5806;DHT22;2929;50.810;8.342;2023-11-21T08:58:45;6.60;99.90
5806;DHT22;2929;50.810;8.342;2023-11-21T09:01:14;6.70;99.90
5806;DHT22;2929;50.810;8.342;2023-11-21T09:03:42;6.80;99.90
5806;DHT22;2929;50.810;8.342;2023-11-21T09:06:09;6.90;99.90
5806;DHT22;2929;50.810;8.342;2023-11-21T09:08:38;7.00;99.90
5806;DHT22;2929;50.810;8.342;2023-11-21T09:11:05;7.10;99.90
5806;DHT22;2929;50.810;8.342;2023-11-21T09:13:33;7.20;99.90
5806;DHT22;2929;50.810;8.342;2023-11-21T09:16:03;7.20;99.90
5806;DHT22;2929;50.810;8.342;2023-11-21T09:18:30;7.30;99.90
5806;DHT22;2929;50.810;8.342;2023-11-21T09:20:57;7.50;99.90
5806;DHT22;2929;50.810;8.342;2023-11-21T09:23:25;7.60;99.90
5806;DHT22;2929;50.810;8.342;2023-11-21T09:25:53;7.70;99.90
5806;DHT22;2929;50.810;8.342;2023-11-21T09:28:23;7.90;99.90
5806;DHT22;2929;50.810;8.342;2023-11-21T09:30:50;8.00;99.90
5806;DHT22;2929;50.810;8.342;2023-11-21T09:33:17;8.20;99.90
5806;DHT22;2929;50.810;8.342;2023-11-21T09:35:44;8.30;99.90
5806;DHT22;2929;50.810;8.342;2023-11-21T09:38:11;8.30;99.90
5806;DHT22;2929;50.810;8.342;2023-11-21T09:40:38;8.30;99.90
5806;DHT22;2929;50.810;8.342;2023-11-21T09:43:09;8.30;99.90
5806;DHT22;2929;50.810;8.342;2023-11-21T09:45:45;8.30;99.90
5806;DHT22;2929;50.810;8.342;2023-11-21T09:48:13;8.40;99.90
5806;DHT22;2929;50.810;8.342;2023-11-21T09:50:42;8.40;99.90
5806;DHT22;2929;50.810;8.342;2023-11-21T09:53:13;8.40;99.90
5806;DHT22;2929;50.810;8.342;2023-11-21T09:55:43;8.40;99.90
5806;DHT22;2929;50.810;8.342;2023-11-21T09:58:13;8.30;99.90
5806;DHT22;2929;50.810;8.342;2023-11-21T10:00:41;8.30;99.90
5806;DHT22;2929;50.810;8.342;2023-11-21T10:03:10;8.30;99.90
5806;DHT22;2929;50.810;8.342;2023-11-21T10:05:38;8.50;99.90
5806;DHT22;2929;50.810;8.342;2023-11-21T10:08:09;8.60;99.90
5806;DHT22;2929;50.810;8.342;2023-11-21T10:10:37;8.70;99.90
5806;DHT22;2929;50.810;8.342;2023-11-21T10:13:07;8.90;99.90
5806;DHT22;2929;50.810;8.342;2023-11-21T10:15:38;9.00;99.90
5806;DHT22;2929;50.810;8.342;2023-11-21T10:18:10;9.10;99.90
5806;DHT22;2929;50.810;8.342;2023-11-21T10:20:37;8.90;99.90
5806;DHT22;2929;50.810;8.342;2023-11-21T10:23:04;9.00;99.90
5806;DHT22;2929;50.810;8.342;2023-11-21T10:25:33;9.00;99.90
5806;DHT22;2929;50.810;8.342;2023-11-21T10:28:03;9.10;99.90
5806;DHT22;2929;50.810;8.342;2023-11-21T10:30:33;9.10;99.90
5806;DHT22;2929;50.810;8.342;2023-11-21T10:33:04;9.00;99.90
5806;DHT22;2929;50.810;8.342;2023-11-21T10:35:44;9.10;99.90
5806;DHT22;2929;50.810;8.342;2023-11-21T10:38:16;9.10;99.90
